This is the latest recevied weather packets stored in our database for station/object EA3CO-11. If no packets are shown the sender has not sent any weather packets the latest 1 day(s).
| Time | Temp. | Humidity | Pressure | Rain* | Wind** | Luminosity | Snow |
|---|---|---|---|---|---|---|---|
| 1778100480 | 16.11° C | 94% | 1016 hPa | - | - | - | - |
| 1778099580 | 15.56° C | 92% | 1015.8 hPa | - | - | - | - |
| 1778098680 | 15.56° C | 93% | 1015.7 hPa | - | - | - | - |
| 1778091479 | 16.11° C | 84% | 1014.1 hPa | - | - | - | - |
| 1778086078 | 17.22° C | 55% | 1013.6 hPa | - | - | - | - |
| 1778080677 | 18.89° C | 42% | 1013.6 hPa | - | - | - | - |
| 1778078877 | 18.89° C | 43% | 1013.6 hPa | - | - | - | - |
| 1778077977 | 19.44° C | 42% | 1013.7 hPa | - | - | - | - |
| 1778073476 | 20° C | 45% | 1014.1 hPa | - | - | - | - |
| 1778072576 | 20° C | 47% | 1014.2 hPa | - | - | - | - |
| 1778071676 | 18.89° C | 47% | 1014.4 hPa | - | - | - | - |
| 1778066254 | 20° C | 41% | 1014.5 hPa | - | - | - | - |
| 1778061754 | 20° C | 51% | 1014.8 hPa | - | - | - | - |
| 1778060854 | 19.44° C | 52% | 1014.9 hPa | - | - | - | - |
| 1778059954 | 20° C | 57% | 1014.9 hPa | - | - | - | - |
| 1778058153 | 16.11° C | 68% | 1015 hPa | - | - | - | - |
| 1778055453 | 18.89° C | 57% | 1014.7 hPa | - | - | - | - |
| 1778054553 | 20° C | 53% | 1014.7 hPa | - | - | - | - |
| 1778053653 | 19.44° C | 55% | 1014.7 hPa | - | - | - | - |
| 1778052753 | 18.33° C | 55% | 1014.6 hPa | - | - | - | - |
| 1778047351 | 12.22° C | 75% | 1014.4 hPa | - | - | - | - |
| 1778046451 | 11.67° C | 77% | 1014.2 hPa | - | - | - | - |
| 1778045551 | 12.22° C | 77% | 1014.1 hPa | - | - | - | - |
| 1778044651 | 12.22° C | 78% | 1014 hPa | - | - | - | - |
| 1778042850 | 11.67° C | 81% | 1013.6 hPa | - | - | - | - |
* Rain since midnight (hover to see other rain measurements)
** Current wind speed in m/s (hover to see current wind gust speed)